Time;durP1;ratioP1;P1;durP2;ratioP2;P2;SDS_P1;SDS_P2;PMS_P1;PMS_P2;Temp;Humidity;BMP_temperature;BMP_pressure;BME280_temperature;BME280_humidity;BME280_pressure;Samples;Min_cycle;Max_cycle;Signal;HPM_P1;HPM_P2
2023/06/11 00:03:52;;;;;;;13.48;5.55;;;;;;;18.01;100.00;101721.47;10376157;28;20531;-68
2023/06/11 00:08:53;;;;;;;11.00;5.43;;;;;;;17.93;100.00;101717.31;10358349;28;20037;-67
2023/06/11 00:13:54;;;;;;;7.40;5.10;;;;;;;17.86;100.00;101711.22;10374142;28;20057;-68
2023/06/11 00:18:55;;;;;;;7.95;5.13;;;;;;;17.79;100.00;101716.19;10374271;28;20038;-67
2023/06/11 00:23:56;;;;;;;10.05;5.25;;;;;;;17.71;100.00;101711.22;10372074;28;20033;-68
2023/06/11 00:28:57;;;;;;;8.05;5.53;;;;;;;17.62;100.00;101704.56;10373244;28;20487;-67
2023/06/11 00:33:59;;;;;;;10.52;5.72;;;;;;;17.55;100.00;101711.25;10375491;28;20038;-67
2023/06/11 00:39:00;;;;;;;9.98;5.90;;;;;;;17.53;100.00;101710.69;10372064;28;20046;-66
2023/06/11 00:44:03;;;;;;;11.70;6.13;;;;;;;17.48;100.00;101715.44;10362571;28;20041;-68
2023/06/11 00:49:03;;;;;;;7.22;5.53;;;;;;;17.46;100.00;101712.09;10361698;28;20053;-68
2023/06/11 00:54:04;;;;;;;8.00;5.70;;;;;;;17.43;100.00;101713.50;10353944;28;20513;-68
2023/06/11 00:59:06;;;;;;;11.95;7.00;;;;;;;17.41;100.00;101715.72;10370524;28;20510;-67
2023/06/11 01:04:07;;;;;;;12.13;6.88;;;;;;;17.30;100.00;101705.69;10371641;28;20042;-68
2023/06/11 01:09:08;;;;;;;12.25;6.68;;;;;;;17.30;100.00;101705.69;10354517;28;20117;-68
2023/06/11 01:14:13;;;;;;;9.18;6.20;;;;;;;17.35;100.00;101714.88;10371252;28;20045;-65
2023/06/11 01:19:17;;;;;;;10.23;6.32;;;;;;;17.33;100.00;101725.47;10372727;28;20041;-67
2023/06/11 01:24:26;;;;;;;8.90;6.30;;;;;;;17.25;100.00;101717.69;10368238;28;20395;-67
2023/06/11 01:29:28;;;;;;;9.90;5.63;;;;;;;17.25;100.00;101716.84;10356234;28;20409;-67
2023/06/11 01:34:28;;;;;;;9.07;6.53;;;;;;;17.21;100.00;101733.25;10371307;28;20033;-67
2023/06/11 01:39:29;;;;;;;10.32;7.15;;;;;;;17.17;100.00;101737.72;10370410;28;20042;-68
2023/06/11 01:44:29;;;;;;;10.65;7.53;;;;;;;17.15;100.00;101734.38;10369672;28;20046;-68
2023/06/11 01:49:30;;;;;;;10.90;6.95;;;;;;;17.08;100.00;101729.09;10369763;28;20042;-68
2023/06/11 01:54:31;;;;;;;12.93;7.53;;;;;;;16.97;100.00;101740.47;10373028;28;20291;-67
2023/06/11 01:59:32;;;;;;;12.20;6.75;;;;;;;16.88;100.00;101742.97;10376793;28;20092;-67
2023/06/11 02:04:32;;;;;;;8.63;6.78;;;;;;;16.78;100.00;101740.97;10374041;28;20033;-67
2023/06/11 02:09:32;;;;;;;10.73;7.47;;;;;;;16.71;100.00;101741.25;10376868;28;20029;-68
2023/06/11 02:14:33;;;;;;;9.32;7.22;;;;;;;16.68;100.00;101741.81;10374629;28;20041;-68
2023/06/11 02:19:33;;;;;;;8.32;7.20;;;;;;;16.62;100.00;101734.56;10365884;28;20038;-68
2023/06/11 02:24:34;;;;;;;13.18;7.63;;;;;;;16.57;100.00;101733.69;10390988;28;20560;-68
2023/06/11 02:29:35;;;;;;;8.68;7.20;;;;;;;16.50;100.00;101734.78;10373531;28;20038;-68
2023/06/11 02:34:35;;;;;;;11.10;8.25;;;;;;;16.37;100.00;101718.66;10371486;28;20030;-68
2023/06/11 02:39:36;;;;;;;9.80;7.70;;;;;;;16.40;100.00;101731.16;10334168;28;1225458;-68
2023/06/11 02:44:36;;;;;;;12.15;8.68;;;;;;;16.33;100.00;101721.13;10374825;28;20049;-68
2023/06/11 02:49:37;;;;;;;11.50;8.30;;;;;;;16.28;100.00;101726.66;10377421;28;20058;-68
2023/06/11 02:54:37;;;;;;;10.60;8.82;;;;;;;16.23;100.00;101720.25;10374248;28;20038;-68
2023/06/11 02:59:37;;;;;;;11.73;8.73;;;;;;;16.18;100.00;101734.94;10378530;28;20037;-68
2023/06/11 03:04:38;;;;;;;10.25;8.35;;;;;;;16.16;100.00;101728.00;10376877;28;20033;-68
2023/06/11 03:09:38;;;;;;;13.43;8.68;;;;;;;16.13;100.00;101729.38;10377024;28;20104;-68
2023/06/11 03:14:39;;;;;;;10.90;9.02;;;;;;;16.12;100.00;101727.69;10375136;28;20041;-69
2023/06/11 03:19:41;;;;;;;13.48;9.32;;;;;;;16.11;100.00;101715.75;10371565;28;20038;-69
2023/06/11 03:24:41;;;;;;;16.58;9.27;;;;;;;16.11;100.00;101720.47;10377244;28;20050;-66
2023/06/11 03:29:42;;;;;;;13.35;9.07;;;;;;;16.11;100.00;101715.75;10374816;28;20029;-68
2023/06/11 03:34:43;;;;;;;13.10;8.77;;;;;;;16.10;100.00;101713.25;10384072;28;20037;-68
2023/06/11 03:39:43;;;;;;;12.77;9.15;;;;;;;16.10;100.00;101721.56;10373616;28;20106;-68
2023/06/11 03:44:44;;;;;;;13.15;9.85;;;;;;;16.13;100.00;101716.31;10373735;28;20038;-68
2023/06/11 03:49:45;;;;;;;15.00;9.32;;;;;;;16.10;100.00;101718.78;10374919;28;20046;-69
2023/06/11 03:54:45;;;;;;;18.08;9.15;;;;;;;16.18;100.00;101723.00;10359253;28;20130;-68
2023/06/11 03:59:45;;;;;;;12.18;8.60;;;;;;;16.20;100.00;101724.41;10318206;28;20050;-68
2023/06/11 04:04:47;;;;;;;12.85;9.40;;;;;;;16.22;100.00;101729.69;10317471;28;20031;-69
2023/06/11 04:09:48;;;;;;;14.25;9.75;;;;;;;16.21;100.00;101726.09;10334507;28;20053;-68
2023/06/11 04:14:48;;;;;;;13.40;9.80;;;;;;;16.25;100.00;101727.22;10346038;28;20037;-68
2023/06/11 04:19:48;;;;;;;13.50;8.60;;;;;;;16.21;100.00;101709.41;10373773;28;20038;-68
2023/06/11 04:24:49;;;;;;;11.45;9.05;;;;;;;16.36;100.00;101732.81;10376161;28;20057;-68
2023/06/11 04:29:52;;;;;;;10.77;8.25;;;;;;;16.39;100.00;101735.03;10374317;28;20041;-69
2023/06/11 04:34:56;;;;;;;12.15;8.80;;;;;;;16.43;100.00;101730.59;10362831;28;20045;-68
2023/06/11 04:40:09;;;;;;;16.98;9.35;;;;;;;16.47;100.00;101724.22;10345458;28;20081;-68
2023/06/11 04:45:09;;;;;;;15.50;9.50;;;;;;;16.52;100.00;101731.75;10374088;28;20038;-68
2023/06/11 04:50:10;;;;;;;11.50;8.27;;;;;;;16.59;100.00;101732.31;10372604;28;20037;-68
2023/06/11 04:55:11;;;;;;;10.77;8.75;;;;;;;16.64;100.00;101735.13;10372522;28;20178;-68
2023/06/11 05:00:13;;;;;;;14.63;8.55;;;;;;;16.68;100.00;101725.13;10367405;28;20122;-68
2023/06/11 05:05:13;;;;;;;11.80;8.35;;;;;;;16.74;100.00;101740.72;10373841;28;20096;-68
2023/06/11 05:10:17;;;;;;;11.48;8.18;;;;;;;16.77;100.00;101732.94;10372067;28;20119;-69
2023/06/11 05:15:18;;;;;;;11.18;8.70;;;;;;;16.91;100.00;101739.66;10367324;28;20237;-69
2023/06/11 05:20:18;;;;;;;12.00;7.97;;;;;;;17.00;100.00;101732.41;10373272;28;20038;-68
2023/06/11 05:25:19;;;;;;;13.15;8.20;;;;;;;17.08;100.00;101723.53;10370593;28;20041;-68
2023/06/11 05:30:24;;;;;;;16.73;8.77;;;;;;;17.24;100.00;101727.16;10369231;28;20075;-68
2023/06/11 05:35:25;;;;;;;12.98;7.65;;;;;;;17.44;100.00;101731.03;10364971;28;20117;-69
2023/06/11 05:40:25;;;;;;;11.20;7.53;;;;;;;17.61;100.00;101726.00;10366064;28;20038;-69
2023/06/11 05:45:26;;;;;;;11.27;7.38;;;;;;;17.76;100.00;101719.56;10369720;28;20045;-69
2023/06/11 05:50:26;;;;;;;8.63;6.20;;;;;;;18.03;100.00;101727.59;10351197;28;20042;-68
2023/06/11 05:55:27;;;;;;;13.85;7.65;;;;;;;18.32;100.00;101736.13;10372450;28;20037;-69
2023/06/11 06:00:28;;;;;;;8.55;6.30;;;;;;;18.69;100.00;101728.41;10367877;28;20072;-69
2023/06/11 06:05:28;;;;;;;8.35;6.13;;;;;;;19.08;100.00;101725.63;10367314;28;20030;-70
2023/06/11 06:10:31;;;;;;;8.85;6.38;;;;;;;19.50;100.00;101726.13;10369493;28;20034;-70
2023/06/11 06:15:33;;;;;;;8.38;5.38;;;;;;;20.01;100.00;101713.56;10371817;28;20030;-72
2023/06/11 06:20:33;;;;;;;9.38;5.68;;;;;;;20.59;100.00;101721.81;10369961;28;20092;-68
2023/06/11 06:25:37;;;;;;;8.45;5.43;;;;;;;20.72;100.00;101715.44;10354020;28;20030;-70
2023/06/11 06:30:39;;;;;;;9.02;6.07;;;;;;;20.93;100.00;101724.34;10367809;28;20538;-69
2023/06/11 06:35:40;;;;;;;8.45;5.97;;;;;;;21.04;100.00;101722.22;10370946;28;20038;-69
2023/06/11 06:40:40;;;;;;;11.50;6.30;;;;;;;21.11;100.00;101703.06;10370600;28;20065;-69
2023/06/11 06:45:41;;;;;;;9.40;5.95;;;;;;;21.39;100.00;101717.16;10378533;28;20069;-69
2023/06/11 06:50:41;;;;;;;11.98;5.78;;;;;;;21.58;100.00;101724.69;10365430;28;20395;-68
2023/06/11 06:55:44;;;;;;;9.23;5.55;;;;;;;21.89;100.00;101734.19;10361218;28;20053;-69
2023/06/11 07:00:45;;;;;;;10.63;5.80;;;;;;;22.06;100.00;101711.16;10377454;28;20045;-69
2023/06/11 07:05:45;;;;;;;8.98;6.18;;;;;;;22.19;100.00;101717.88;10377154;28;20042;-70
2023/06/11 07:10:50;;;;;;;6.85;4.95;;;;;;;22.43;100.00;101719.63;10370007;28;20046;-70
2023/06/11 07:15:51;;;;;;;7.63;5.10;;;;;;;22.54;100.00;101718.28;10356328;28;20043;-69
2023/06/11 07:20:51;;;;;;;13.30;5.78;;;;;;;22.63;100.00;101721.16;10354597;28;20426;-69
2023/06/11 07:25:52;;;;;;;10.63;5.05;;;;;;;22.93;100.00;101725.25;10355749;28;20037;-69
2023/06/11 07:30:54;;;;;;;9.48;6.05;;;;;;;23.05;100.00;101707.84;10353518;28;20080;-69
2023/06/11 07:35:54;;;;;;;7.72;5.75;;;;;;;23.35;100.00;101714.66;10355365;28;20109;-69
2023/06/11 07:40:55;;;;;;;10.20;5.55;;;;;;;23.48;100.00;101710.09;10354053;28;20034;-69
2023/06/11 07:45:55;;;;;;;9.02;5.43;;;;;;;23.64;100.00;101718.97;10355794;28;20058;-69
2023/06/11 07:50:56;;;;;;;9.38;5.63;;;;;;;23.79;100.00;101718.56;10350211;28;20030;-69
2023/06/11 07:55:57;;;;;;;8.45;5.20;;;;;;;23.95;100.00;101719.78;10348770;28;20030;-70
2023/06/11 08:00:57;;;;;;;10.77;5.53;;;;;;;24.12;100.00;101718.19;10366326;28;20058;-69
2023/06/11 08:05:58;;;;;;;9.10;5.00;;;;;;;24.22;100.00;101711.44;10352135;28;20034;-69
2023/06/11 08:10:58;;;;;;;6.93;5.72;;;;;;;24.44;100.00;101719.78;10350797;28;20038;-69
2023/06/11 08:15:59;;;;;;;10.52;5.43;;;;;;;24.70;100.00;101722.66;10337183;28;20038;-69
2023/06/11 08:21:00;;;;;;;5.93;5.32;;;;;;;24.85;100.00;101712.06;10353723;28;20041;-69
2023/06/11 08:26:01;;;;;;;7.05;5.20;;;;;;;25.00;100.00;101711.53;10353403;28;20160;-69
2023/06/11 08:31:01;;;;;;;7.43;5.13;;;;;;;25.22;100.00;101712.53;10350556;28;20049;-69
2023/06/11 08:36:03;;;;;;;8.13;5.18;;;;;;;25.57;100.00;101704.84;10353948;28;20030;-69
2023/06/11 08:41:03;;;;;;;8.05;5.70;;;;;;;25.74;100.00;101709.59;10343134;28;20057;-69
2023/06/11 08:46:05;;;;;;;11.05;5.57;;;;;;;25.92;100.00;101697.09;10337493;28;20050;-68
2023/06/11 08:51:05;;;;;;;9.55;5.68;;;;;;;26.03;100.00;101703.19;10351684;28;20054;-69
2023/06/11 08:56:06;;;;;;;6.18;5.50;;;;;;;26.20;100.00;101699.44;10345831;28;20038;-69
2023/06/11 09:01:10;;;;;;;9.90;5.07;;;;;;;26.39;100.00;101684.84;10333671;28;20704;-69
2023/06/11 09:06:10;;;;;;;8.65;5.07;;;;;;;26.42;100.00;101655.09;10333889;28;20045;-69
2023/06/11 09:11:14;;;;;;;6.65;4.55;;;;;;;26.91;100.00;101694.94;10352351;28;20049;-69
2023/06/11 09:16:15;;;;;;;7.05;4.80;;;;;;;27.09;100.00;101690.78;10366896;28;20509;-69
2023/06/11 09:21:15;;;;;;;8.00;4.88;;;;;;;27.29;97.94;101683.47;10353045;28;20045;-70
2023/06/11 09:26:17;;;;;;;8.95;4.93;;;;;;;27.43;97.74;101683.16;10352013;28;20038;-69
2023/06/11 09:31:18;;;;;;;5.93;4.60;;;;;;;27.60;95.93;101686.91;10355268;28;20042;-69
2023/06/11 09:36:19;;;;;;;6.43;5.50;;;;;;;27.78;95.96;101677.88;10370905;28;20034;-69
2023/06/11 09:41:19;;;;;;;7.80;4.50;;;;;;;28.08;95.55;101680.50;10352205;28;20098;-69
2023/06/11 09:46:21;;;;;;;7.72;4.72;;;;;;;28.21;91.88;101678.47;10347368;28;20044;-68
2023/06/11 09:51:23;;;;;;;6.40;4.72;;;;;;;28.36;91.86;101674.94;10370717;28;20048;-70
2023/06/11 09:56:24;;;;;;;6.47;4.90;;;;;;;28.53;89.82;101670.19;10371756;28;20046;-69
2023/06/11 10:01:25;;;;;;;5.85;4.25;;;;;;;28.63;87.71;101666.88;10372418;28;20508;-70
2023/06/11 10:06:42;;;;;;;7.78;4.57;;;;;;;28.83;86.22;101669.84;10371018;28;20042;-70
2023/06/11 10:11:42;;;;;;;;;;;;;;;28.94;86.25;101670.97;10387736;28;20101;-68
2023/06/11 10:16:51;;;;;;;6.43;4.57;;;;;;;29.13;85.41;101679.66;10378233;28;20310;-68
2023/06/11 10:21:58;;;;;;;9.07;4.25;;;;;;;29.40;80.47;101665.81;10376441;28;20049;-68
2023/06/11 10:27:07;;;;;;;5.38;4.78;;;;;;;29.65;82.09;101666.47;10346098;28;20042;-69
2023/06/11 10:32:16;;;;;;;10.35;5.47;;;;;;;29.72;76.94;101655.31;10351873;28;20121;-69
2023/06/11 10:37:28;;;;;;;5.78;4.40;;;;;;;29.68;76.16;101653.53;10380012;28;20067;-68
2023/06/11 10:42:37;;;;;;;6.15;4.50;;;;;;;29.92;73.86;101644.84;10378413;28;20623;-68
2023/06/11 10:47:45;;;;;;;7.00;4.65;;;;;;;30.21;72.98;101639.84;10377721;28;20052;-68
2023/06/11 10:52:54;;;;;;;5.85;4.82;;;;;;;30.33;72.63;101645.44;10378479;28;20097;-71
2023/06/11 10:57:56;;;;;;;7.25;4.38;;;;;;;30.33;71.46;101639.75;10370103;28;20065;-66
2023/06/11 11:02:57;;;;;;;6.53;4.18;;;;;;;30.43;70.47;101631.81;10356406;28;20034;-65
2023/06/11 11:08:00;;;;;;;5.10;4.30;;;;;;;30.32;67.49;101626.72;10358209;28;20042;-67
2023/06/11 11:13:01;;;;;;;4.57;3.97;;;;;;;30.46;67.12;101616.88;10356584;28;20185;-67
2023/06/11 11:18:01;;;;;;;4.55;4.13;;;;;;;30.40;66.85;101610.66;10354623;28;20149;-67
2023/06/11 11:23:02;;;;;;;5.30;4.80;;;;;;;30.37;67.85;101600.88;10353996;28;20049;-73
2023/06/11 11:28:03;;;;;;;7.50;4.35;;;;;;;30.59;66.52;101615.53;10370037;28;20375;-73
2023/06/11 11:33:03;;;;;;;5.43;4.05;;;;;;;30.14;63.67;101608.47;10356566;28;20468;-70
2023/06/11 11:38:04;;;;;;;6.20;4.15;;;;;;;30.09;64.17;101617.25;10353634;28;20034;-71
2023/06/11 11:43:04;;;;;;;6.68;4.65;;;;;;;30.38;63.52;101613.88;10354891;28;20049;-72
2023/06/11 11:48:07;;;;;;;6.85;4.82;;;;;;;30.76;62.64;101602.91;10359770;28;20064;-73
2023/06/11 11:53:08;;;;;;;5.55;4.90;;;;;;;30.41;62.06;101592.44;10361519;28;20042;-77
2023/06/11 11:58:13;;;;;;;4.97;4.25;;;;;;;29.90;62.28;101603.84;10354566;28;20038;-73
2023/06/11 12:03:14;;;;;;;7.18;5.30;;;;;;;29.74;64.12;101598.19;10354243;28;20042;-72
2023/06/11 12:08:14;;;;;;;7.47;4.43;;;;;;;30.91;62.36;101582.09;10337993;28;20034;-71
2023/06/11 12:13:15;;;;;;;5.85;4.63;;;;;;;32.00;59.07;101581.91;10365177;28;20076;-72
2023/06/11 12:18:15;;;;;;;5.78;4.60;;;;;;;32.05;58.02;101571.00;10371411;28;20053;-70
2023/06/11 12:23:16;;;;;;;6.70;4.57;;;;;;;32.51;58.82;101585.03;10335321;28;20041;-75
2023/06/11 12:28:17;;;;;;;5.32;4.63;;;;;;;33.35;57.68;101576.16;10357227;28;20065;-71
2023/06/11 12:33:18;;;;;;;7.45;5.40;;;;;;;33.75;54.48;101572.41;10338634;28;20038;-70
2023/06/11 12:38:18;;;;;;;6.43;5.13;;;;;;;32.86;57.00;101572.41;10344858;28;20048;-68
2023/06/11 12:43:19;;;;;;;8.45;5.07;;;;;;;33.52;55.12;101568.97;10353261;28;20092;-68
2023/06/11 12:48:19;;;;;;;7.43;5.07;;;;;;;34.23;52.86;101562.91;10350547;28;20066;-73
2023/06/11 12:53:20;;;;;;;9.23;5.00;;;;;;;34.64;52.35;101550.41;10339630;28;20076;-73
2023/06/11 12:58:20;;;;;;;7.68;4.85;;;;;;;34.65;51.25;101561.47;10357442;28;20134;-79
2023/06/11 13:03:21;;;;;;;6.15;4.78;;;;;;;34.73;49.25;101554.56;10352763;28;20041;-66
2023/06/11 13:08:21;;;;;;;6.30;4.85;;;;;;;34.25;49.45;101569.03;10351432;28;20042;-69
2023/06/11 13:13:22;;;;;;;5.30;4.80;;;;;;;33.49;50.97;101546.91;10353069;28;20561;-73
2023/06/11 13:18:22;;;;;;;5.05;4.32;;;;;;;33.78;48.33;101559.41;10348411;28;20069;-73
2023/06/11 13:23:26;;;;;;;6.55;4.60;;;;;;;34.42;49.16;101546.66;10351129;28;20038;-67
2023/06/11 13:28:29;;;;;;;6.07;4.43;;;;;;;35.23;48.07;101553.00;10363961;28;20037;-72
2023/06/11 13:33:30;;;;;;;6.60;4.70;;;;;;;35.59;46.81;101547.25;10354198;28;20164;-72
2023/06/11 13:38:30;;;;;;;7.72;5.40;;;;;;;35.63;47.96;101542.31;10372318;28;20034;-73
2023/06/11 13:43:31;;;;;;;5.57;5.07;;;;;;;35.32;46.64;101536.22;10372329;28;20097;-72
2023/06/11 13:48:32;;;;;;;7.22;5.22;;;;;;;34.39;47.02;101542.56;10368904;28;20038;-69
2023/06/11 13:53:33;;;;;;;6.22;5.10;;;;;;;33.21;49.29;101544.66;10378171;28;20030;-71
2023/06/11 13:58:33;;;;;;;5.28;4.78;;;;;;;34.12;49.19;101542.03;10376034;28;20033;-71
2023/06/11 14:03:34;;;;;;;8.55;4.93;;;;;;;34.01;48.21;101536.25;10381159;28;20049;-74
2023/06/11 14:08:34;;;;;;;5.47;4.43;;;;;;;33.69;49.16;101544.63;10378455;28;20089;-71
2023/06/11 14:13:35;;;;;;;6.63;4.65;;;;;;;34.71;49.10;101530.44;10376508;28;20041;-70
2023/06/11 14:18:35;;;;;;;8.93;5.07;;;;;;;34.98;46.37;101530.88;10357872;28;20042;-67
2023/06/11 14:23:36;;;;;;;6.88;4.50;;;;;;;35.08;46.34;101532.09;10357982;28;20034;-72
2023/06/11 14:28:36;;;;;;;6.25;5.32;;;;;;;34.71;47.68;101530.44;10373207;28;20061;-72
2023/06/11 14:33:36;;;;;;;6.40;4.65;;;;;;;34.90;46.30;101527.19;10359319;28;20046;-72
2023/06/11 14:38:37;;;;;;;9.15;5.50;;;;;;;35.22;45.89;101523.53;10371103;28;20084;-71
2023/06/11 14:43:38;;;;;;;7.85;4.40;;;;;;;34.66;45.63;101514.47;10359183;28;20046;-70
2023/06/11 14:48:38;;;;;;;8.50;6.25;;;;;;;35.32;45.46;101516.19;10378116;28;20062;-70
2023/06/11 14:53:39;;;;;;;5.95;4.68;;;;;;;35.94;43.85;101491.94;10376207;28;20034;-70
2023/06/11 14:58:39;;;;;;;5.60;5.10;;;;;;;36.17;42.27;101482.84;10361629;28;20041;-73
2023/06/11 15:03:40;;;;;;;5.88;5.25;;;;;;;36.43;42.96;101497.88;10354446;28;20042;-71
2023/06/11 15:08:40;;;;;;;7.40;5.40;;;;;;;36.75;44.01;101500.53;10356477;28;20088;-70
2023/06/11 15:13:41;;;;;;;9.07;5.60;;;;;;;36.31;41.75;101482.78;10355318;28;20042;-69
2023/06/11 15:18:41;;;;;;;8.48;5.03;;;;;;;36.28;42.21;101494.25;10351449;28;20054;-73
2023/06/11 15:23:42;;;;;;;7.15;5.22;;;;;;;36.08;41.85;101486.13;10336463;28;20035;-73
2023/06/11 15:28:42;;;;;;;6.53;4.78;;;;;;;36.29;42.57;101479.50;10376138;28;20042;-73
2023/06/11 15:33:43;;;;;;;6.30;5.70;;;;;;;36.66;42.59;101474.41;10375993;28;20037;-72
2023/06/11 15:38:43;;;;;;;7.60;5.20;;;;;;;36.64;42.22;101489.16;10376943;28;20096;-73
2023/06/11 15:43:44;;;;;;;7.50;5.32;;;;;;;35.46;42.51;101483.88;10375924;28;20410;-72
2023/06/11 15:48:44;;;;;;;7.90;5.45;;;;;;;33.00;45.05;101486.19;10375659;28;20500;-69
2023/06/11 15:53:44;;;;;;;6.30;5.35;;;;;;;31.42;47.74;101495.63;10374088;28;20100;-69
2023/06/11 15:58:45;;;;;;;6.32;4.70;;;;;;;32.16;48.01;101499.94;10357950;28;20042;-70
2023/06/11 16:03:45;;;;;;;7.85;5.57;;;;;;;32.09;48.40;101485.59;10377045;28;20041;-71
2023/06/11 16:08:46;;;;;;;6.75;4.70;;;;;;;33.80;47.68;101468.44;10375813;28;20049;-72
2023/06/11 16:13:46;;;;;;;5.53;4.45;;;;;;;35.44;45.04;101487.13;10373088;28;20069;-72
2023/06/11 16:18:47;;;;;;;6.95;5.03;;;;;;;35.90;44.54;101489.06;10375010;28;20042;-73
2023/06/11 16:23:47;;;;;;;5.90;5.15;;;;;;;36.41;44.15;101474.53;10374138;28;20041;-72
2023/06/11 16:28:49;;;;;;;5.00;4.43;;;;;;;36.28;41.29;101469.28;10377545;28;20049;-71
2023/06/11 16:33:50;;;;;;;5.53;4.72;;;;;;;36.16;40.64;101469.75;10409615;28;20040;-73
2023/06/11 16:38:50;;;;;;;6.55;4.45;;;;;;;36.11;41.34;101473.03;10415158;28;20030;-71
2023/06/11 16:43:51;;;;;;;5.30;4.43;;;;;;;35.23;42.13;101479.41;10412992;28;20092;-72
2023/06/11 16:48:52;;;;;;;5.80;4.70;;;;;;;33.09;44.28;101489.53;10389447;28;20084;-70
2023/06/11 16:53:52;;;;;;;6.03;4.93;;;;;;;31.69;45.41;101481.38;10374759;28;20355;-69
2023/06/11 16:58:54;;;;;;;6.68;4.95;;;;;;;30.80;47.11;101492.09;10407906;28;20042;-69
2023/06/11 17:03:55;;;;;;;4.88;4.25;;;;;;;30.22;49.12;101496.63;10402775;28;20034;-70
2023/06/11 17:08:55;;;;;;;5.15;4.13;;;;;;;29.69;50.58;101502.78;10396054;28;20042;-68
2023/06/11 17:13:56;;;;;;;8.07;4.63;;;;;;;29.33;50.26;101501.09;10372251;28;20065;-67
2023/06/11 17:18:56;;;;;;;5.43;4.15;;;;;;;29.16;49.70;101503.13;10398634;28;20692;-69
2023/06/11 17:23:57;;;;;;;6.13;3.90;;;;;;;28.92;50.18;101491.94;10401568;28;20069;-71
2023/06/11 17:28:57;;;;;;;5.13;3.70;;;;;;;28.83;51.83;101506.31;10413202;28;20061;-67
2023/06/11 17:33:58;;;;;;;7.22;4.45;;;;;;;28.69;52.82;101512.44;10399817;28;20049;-69
2023/06/11 17:38:58;;;;;;;7.82;4.20;;;;;;;28.56;54.08;101522.16;10381249;28;20042;-70
2023/06/11 17:43:59;;;;;;;4.90;4.28;;;;;;;28.28;54.81;101519.31;10384734;28;20045;-69
2023/06/11 17:48:59;;;;;;;4.55;3.70;;;;;;;27.93;54.13;101509.41;10389661;28;20037;-69
2023/06/11 17:54:00;;;;;;;7.07;4.03;;;;;;;27.63;52.63;101491.88;10412827;28;20045;-68
2023/06/11 17:59:01;;;;;;;6.53;4.45;;;;;;;27.48;53.34;101503.94;10413471;28;20036;-68
2023/06/11 18:04:02;;;;;;;5.30;4.15;;;;;;;27.28;53.57;101503.69;10399168;28;20041;-69
2023/06/11 18:09:03;;;;;;;6.47;4.30;;;;;;;27.15;55.17;101505.66;10395320;28;20038;-72
2023/06/11 18:14:03;;;;;;;5.53;4.30;;;;;;;27.01;55.16;101518.50;10374362;28;20188;-67
2023/06/11 18:19:04;;;;;;;5.18;3.80;;;;;;;26.81;55.78;101514.56;10382036;28;20096;-70
2023/06/11 18:24:04;;;;;;;6.82;4.50;;;;;;;26.65;56.77;101528.56;10380706;28;20042;-71
2023/06/11 18:29:05;;;;;;;5.00;3.92;;;;;;;26.49;56.05;101522.69;10371594;28;20034;-70
2023/06/11 18:34:05;;;;;;;6.22;4.00;;;;;;;26.34;58.05;101529.81;10392999;28;20548;-70
2023/06/11 18:39:06;;;;;;;4.30;3.47;;;;;;;26.13;59.05;101550.41;10405883;28;20467;-70
2023/06/11 18:44:06;;;;;;;5.10;3.97;;;;;;;25.97;59.11;101550.19;10365917;28;20429;-71
2023/06/11 18:49:07;;;;;;;5.75;3.83;;;;;;;25.78;59.23;101552.63;10407161;28;20041;-73
2023/06/11 18:54:07;;;;;;;6.40;3.85;;;;;;;25.60;61.36;101560.34;10420063;28;20033;-69
2023/06/11 18:59:08;;;;;;;6.65;4.22;;;;;;;25.37;61.86;101559.81;10400764;28;20092;-68
2023/06/11 19:04:08;;;;;;;4.22;3.38;;;;;;;25.18;62.91;101569.47;10394787;28;20425;-69
2023/06/11 19:09:10;;;;;;;5.20;3.63;;;;;;;24.94;62.49;101569.22;10404267;28;20034;-68
2023/06/11 19:14:11;;;;;;;5.05;3.40;;;;;;;24.71;62.28;101569.44;10414747;28;20041;-68
2023/06/11 19:19:11;;;;;;;5.57;3.83;;;;;;;24.47;63.83;101577.53;10403780;28;20033;-67
2023/06/11 19:24:15;;;;;;;5.18;3.55;;;;;;;24.21;65.41;101581.19;10392145;28;20064;-70
2023/06/11 19:29:16;;;;;;;5.25;3.55;;;;;;;23.96;66.21;101580.84;10379153;28;20064;-69
2023/06/11 19:34:16;;;;;;;6.57;3.60;;;;;;;23.75;65.74;101585.38;10383273;28;20069;-70
2023/06/11 19:39:17;;;;;;;4.35;3.22;;;;;;;23.60;64.24;101588.66;10390610;28;20045;-69
2023/06/11 19:44:17;;;;;;;4.38;2.78;;;;;;;23.47;63.22;101590.44;10362676;28;20033;-69
2023/06/11 19:49:18;;;;;;;7.03;3.40;;;;;;;23.08;63.92;101556.38;10351407;28;20117;-71
2023/06/11 19:54:19;;;;;;;4.38;3.08;;;;;;;23.14;63.85;101602.00;10347528;28;20464;-70
2023/06/11 19:59:19;;;;;;;5.57;3.20;;;;;;;22.98;64.56;101601.53;10357158;28;20158;-77
2023/06/11 20:04:21;;;;;;;3.53;2.83;;;;;;;22.81;64.46;101607.06;10399905;28;20061;-77
2023/06/11 20:09:22;;;;;;;6.25;2.78;;;;;;;22.65;64.72;101627.06;10354434;28;20625;-72
2023/06/11 20:14:25;;;;;;;3.70;2.50;;;;;;;22.48;65.30;101632.56;10374437;28;20068;-69
2023/06/11 20:19:26;;;;;;;6.10;3.20;;;;;;;22.31;65.25;101650.91;10407476;28;20347;-66
2023/06/11 20:24:26;;;;;;;4.32;2.80;;;;;;;22.17;65.15;101655.66;10395669;28;20037;-66
2023/06/11 20:29:27;;;;;;;5.00;2.65;;;;;;;22.04;64.68;101650.91;10409978;28;20033;-65
2023/06/11 20:34:27;;;;;;;5.22;2.83;;;;;;;21.91;64.74;101658.19;10414394;28;20045;-67
2023/06/11 20:39:28;;;;;;;7.63;3.03;;;;;;;21.79;64.96;101655.91;10411574;28;20053;-65
2023/06/11 20:44:29;;;;;;;4.40;2.72;;;;;;;21.68;64.91;101660.88;10411635;28;20049;-66
2023/06/11 20:49:30;;;;;;;4.63;2.83;;;;;;;21.55;66.03;101659.72;10394062;28;20046;-65
2023/06/11 20:54:30;;;;;;;4.97;3.03;;;;;;;21.23;66.49;101626.13;10409450;28;20034;-65
2023/06/11 20:59:31;;;;;;;3.42;2.38;;;;;;;21.32;66.92;101674.72;10428070;28;20037;-69
2023/06/11 21:04:31;;;;;;;4.38;2.42;;;;;;;21.16;67.18;101676.94;10408832;28;20041;-69
2023/06/11 21:09:32;;;;;;;5.20;2.65;;;;;;;21.08;67.93;101692.47;10398714;28;20109;-81
2023/06/11 21:14:32;;;;;;;4.47;2.95;;;;;;;20.98;68.55;101684.28;10397019;28;20049;-75
2023/06/11 21:19:33;;;;;;;3.67;2.45;;;;;;;20.88;69.46;101692.84;10409050;28;20038;-77
2023/06/11 21:24:33;;;;;;;5.13;2.60;;;;;;;20.79;69.76;101694.66;10411431;28;20037;-71
2023/06/11 21:29:34;;;;;;;7.22;2.08;;;;;;;20.72;69.99;101697.81;10411359;28;21518;-73
2023/06/11 21:34:36;;;;;;;2.97;2.22;;;;;;;20.51;70.70;101683.28;10408077;28;20046;-72
2023/06/11 21:39:37;;;;;;;4.30;3.00;;;;;;;20.56;72.14;101712.00;10404395;28;20041;-83
2023/06/11 21:44:37;;;;;;;7.60;2.95;;;;;;;20.44;73.07;101711.59;10378916;28;20062;-78
2023/06/11 21:49:38;;;;;;;6.45;2.63;;;;;;;20.27;73.82;101723.31;10408937;28;20034;-69
2023/06/11 21:54:38;;;;;;;4.72;2.83;;;;;;;20.12;75.25;101731.91;10406969;28;20063;-70
2023/06/11 21:59:42;;;;;;;5.38;2.55;;;;;;;19.98;76.80;101739.34;10401400;28;20070;-70
2023/06/11 22:04:43;;;;;;;5.55;2.83;;;;;;;19.84;78.40;101739.19;10409853;28;20045;-70
2023/06/11 22:09:43;;;;;;;5.75;2.50;;;;;;;19.66;79.84;101743.56;10391873;28;20073;-71
2023/06/11 22:14:44;;;;;;;5.78;2.15;;;;;;;19.52;81.54;101740.63;10392062;28;20034;-71
2023/06/11 22:19:46;;;;;;;3.70;2.70;;;;;;;19.35;81.65;101732.69;10402259;28;20104;-70
2023/06/11 22:24:46;;;;;;;6.97;2.15;;;;;;;19.27;83.69;101738.91;10385970;28;20038;-70
2023/06/11 22:29:48;;;;;;;4.95;2.10;;;;;;;19.19;85.21;101751.50;10405748;28;20069;-69
2023/06/11 22:34:49;;;;;;;6.20;2.40;;;;;;;19.06;86.17;101738.19;10417994;28;20037;-70
2023/06/11 22:39:50;;;;;;;2.70;1.77;;;;;;;18.97;86.99;101749.16;10392258;28;20049;-70
2023/06/11 22:44:51;;;;;;;3.00;2.03;;;;;;;18.83;87.04;101736.97;10377090;28;20042;-70
2023/06/11 22:49:51;;;;;;;4.65;2.22;;;;;;;18.79;89.02;101750.69;10411633;28;20037;-70
2023/06/11 22:54:52;;;;;;;3.75;1.63;;;;;;;18.72;90.10;101753.75;10391610;28;20036;-71